Time;durP1;ratioP1;P1;durP2;ratioP2;P2;SDS_P1;SDS_P2;PMS_P1;PMS_P2;Temp;Humidity;BMP_temperature;BMP_pressure;BME280_temperature;BME280_humidity;BME280_pressure;Samples;Min_cycle;Max_cycle;Signal;HPM_P1;HPM_P2
2021/12/06 00:02:19;;;;;;;27.05;17.25;;;2.50;99.90;;;;;;4996561;28;20187;-74
2021/12/06 00:04:45;;;;;;;29.52;16.65;;;2.40;99.90;;;;;;5013031;28;20054;-75
2021/12/06 00:07:16;;;;;;;24.48;15.70;;;2.50;99.90;;;;;;5013398;28;20057;-74
2021/12/06 00:09:44;;;;;;;28.00;16.42;;;2.50;99.90;;;;;;5013332;28;20050;-73
2021/12/06 00:12:18;;;;;;;26.42;15.23;;;2.50;99.90;;;;;;4997810;28;20044;-74
2021/12/06 00:14:44;;;;;;;26.85;15.93;;;2.50;99.90;;;;;;4979509;28;20784;-74
2021/12/06 00:17:19;;;;;;;28.65;15.48;;;2.50;99.90;;;;;;4997646;28;20509;-72
2021/12/06 00:19:45;;;;;;;28.85;15.25;;;2.40;99.90;;;;;;5013064;28;20053;-73
2021/12/06 00:22:23;;;;;;;30.65;16.30;;;2.40;99.90;;;;;;4996310;28;20046;-74
2021/12/06 00:24:54;;;;;;;28.20;17.05;;;2.40;99.90;;;;;;4995475;28;20129;-73
2021/12/06 00:27:20;;;;;;;29.92;17.33;;;2.40;99.90;;;;;;5012798;28;20084;-74
2021/12/06 00:29:47;;;;;;;29.33;17.33;;;2.40;99.90;;;;;;5013153;28;20061;-74
2021/12/06 00:32:19;;;;;;;30.88;18.00;;;2.40;99.90;;;;;;5014019;28;20061;-73
2021/12/06 00:34:45;;;;;;;32.67;17.10;;;2.30;99.90;;;;;;5005305;28;20073;-73
2021/12/06 00:37:23;;;;;;;27.17;16.95;;;2.20;99.90;;;;;;5021808;28;20046;-75
2021/12/06 00:39:54;;;;;;;30.90;18.00;;;2.20;99.90;;;;;;4990295;28;20108;-74
2021/12/06 00:42:27;;;;;;;33.28;18.48;;;2.10;99.90;;;;;;5012498;28;20053;-74
2021/12/06 00:44:54;;;;;;;30.33;17.35;;;2.10;99.90;;;;;;5013532;28;20096;-74
2021/12/06 00:47:20;;;;;;;32.90;17.48;;;2.00;99.90;;;;;;5021904;28;20062;-71
2021/12/06 00:49:51;;;;;;;30.25;17.35;;;2.00;99.90;;;;;;4996913;28;20054;-75
2021/12/06 00:52:18;;;;;;;33.40;18.48;;;1.90;99.90;;;;;;4979467;28;20065;-74
2021/12/06 00:54:46;;;;;;;34.28;19.50;;;1.90;99.90;;;;;;5012200;28;20522;-74
2021/12/06 00:57:13;;;;;;;34.42;19.45;;;1.80;99.90;;;;;;4995756;28;20050;-73
2021/12/06 00:59:40;;;;;;;35.70;20.25;;;1.80;99.90;;;;;;4996403;28;20696;-74
2021/12/06 01:02:08;;;;;;;36.00;20.08;;;1.70;99.90;;;;;;5012383;28;20124;-74
2021/12/06 01:04:39;;;;;;;38.90;20.52;;;1.70;99.90;;;;;;4995240;28;20053;-74
2021/12/06 01:07:30;;;;;;;40.72;21.77;;;1.70;99.90;;;;;;5011679;28;20056;-74
2021/12/06 01:09:56;;;;;;;36.53;21.40;;;1.70;99.90;;;;;;4994830;28;20097;-74
2021/12/06 01:12:22;;;;;;;39.45;21.65;;;1.70;99.90;;;;;;4994468;28;20159;-73
2021/12/06 01:14:48;;;;;;;42.13;22.98;;;1.70;99.90;;;;;;4994235;28;20127;-74
2021/12/06 01:17:14;;;;;;;44.50;24.45;;;1.70;99.90;;;;;;4994189;28;20097;-73
2021/12/06 01:19:39;;;;;;;43.90;24.23;;;1.80;99.90;;;;;;4994170;28;20540;-74
2021/12/06 01:24:53;;;;;;;37.72;21.98;;;1.80;99.90;;;;;;4979415;28;20057;-73
2021/12/06 01:40:21;;;;;;;36.85;20.85;;;1.80;99.90;;;;;;5010978;28;20572;-73
2021/12/06 01:42:50;;;;;;;38.67;21.20;;;1.90;99.90;;;;;;4979248;28;20054;-73
2021/12/06 01:45:17;;;;;;;40.42;21.02;;;1.90;99.90;;;;;;5011318;28;20156;-73
2021/12/06 01:47:43;;;;;;;40.63;21.63;;;1.90;99.90;;;;;;5011516;28;20041;-73
2021/12/06 01:50:22;;;;;;;37.00;19.75;;;1.90;99.90;;;;;;5012570;28;20050;-73
2021/12/06 01:52:51;;;;;;;39.20;21.30;;;2.00;99.90;;;;;;5011025;28;20140;-73
2021/12/06 01:55:24;;;;;;;38.55;21.70;;;2.00;99.90;;;;;;5011038;28;20054;-74
2021/12/06 01:57:50;;;;;;;39.40;21.13;;;2.00;99.90;;;;;;4994514;28;20689;-74
2021/12/06 02:00:45;;;;;;;42.17;23.88;;;2.00;99.90;;;;;;5011361;28;20415;-74
2021/12/06 02:03:11;;;;;;;41.55;22.48;;;2.00;99.90;;;;;;4978374;28;20053;-74
2021/12/06 02:05:40;;;;;;;40.92;21.42;;;2.00;99.90;;;;;;5012307;28;20056;-74
2021/12/06 02:08:06;;;;;;;36.35;19.95;;;2.10;99.90;;;;;;5010741;28;20045;-74
2021/12/06 02:10:33;;;;;;;46.70;24.00;;;2.10;99.90;;;;;;5011304;28;20057;-74
2021/12/06 02:13:00;;;;;;;40.47;21.35;;;2.10;99.90;;;;;;5012151;28;20058;-74
2021/12/06 02:18:10;;;;;;;38.88;22.52;;;2.10;99.90;;;;;;5030671;28;20053;-74
2021/12/06 02:20:45;;;;;;;37.85;21.38;;;2.10;99.90;;;;;;5030565;28;20057;-76
2021/12/06 02:23:13;;;;;;;45.55;22.50;;;2.10;99.90;;;;;;5030460;28;20061;-74
2021/12/06 02:25:43;;;;;;;39.83;21.65;;;2.10;99.90;;;;;;5013787;28;20859;-75
2021/12/06 02:28:11;;;;;;;42.60;23.55;;;2.10;99.90;;;;;;5014221;28;20057;-75
2021/12/06 02:30:37;;;;;;;43.80;22.17;;;2.10;99.90;;;;;;5030638;28;20064;-74
2021/12/06 02:33:04;;;;;;;39.03;21.98;;;2.10;99.90;;;;;;5030288;28;20045;-75
2021/12/06 02:35:30;;;;;;;46.75;24.08;;;2.10;99.90;;;;;;5032075;28;20421;-74
2021/12/06 02:37:56;;;;;;;38.45;21.33;;;2.10;99.90;;;;;;5029861;28;20495;-74
2021/12/06 02:40:25;;;;;;;40.80;23.27;;;2.10;99.90;;;;;;5030619;28;20093;-75
2021/12/06 02:42:52;;;;;;;40.35;22.48;;;2.20;99.90;;;;;;5030430;28;20483;-73
2021/12/06 02:45:35;;;;;;;48.08;23.95;;;2.20;99.90;;;;;;4989791;28;20056;-73
2021/12/06 02:48:06;;;;;;;45.15;22.25;;;2.20;99.90;;;;;;4957487;28;20136;-74
2021/12/06 02:50:39;;;;;;;40.67;21.50;;;2.20;99.90;;;;;;4957592;28;20050;-73
2021/12/06 02:53:05;;;;;;;44.50;23.00;;;2.20;99.90;;;;;;4973864;28;20149;-74
2021/12/06 02:55:36;;;;;;;44.67;23.08;;;2.20;99.90;;;;;;4957602;28;20046;-74
2021/12/06 02:58:55;;;;;;;43.20;21.60;;;2.20;99.90;;;;;;4973500;28;20133;-74
2021/12/06 03:01:27;;;;;;;42.90;23.08;;;2.30;99.90;;;;;;4973293;28;20054;-73
2021/12/06 03:03:53;;;;;;;48.22;24.17;;;2.20;99.90;;;;;;4973434;28;20057;-72
2021/12/06 03:06:23;;;;;;;46.63;24.45;;;2.20;99.90;;;;;;4957237;28;20057;-73
2021/12/06 03:08:59;;;;;;;40.45;22.05;;;2.20;99.90;;;;;;4957290;28;20133;-74
2021/12/06 03:11:27;;;;;;;41.70;23.75;;;2.20;99.90;;;;;;4973676;28;20050;-74
2021/12/06 03:13:54;;;;;;;48.22;24.23;;;2.20;99.90;;;;;;4956802;28;20187;-74
2021/12/06 03:16:20;;;;;;;44.78;24.25;;;2.30;99.90;;;;;;4941365;28;20058;-73
2021/12/06 03:18:51;;;;;;;45.20;23.45;;;2.20;99.90;;;;;;4973355;28;20563;-73
2021/12/06 03:21:19;;;;;;;49.05;25.52;;;2.30;99.90;;;;;;4973215;28;20073;-74
2021/12/06 03:23:48;;;;;;;48.65;25.95;;;2.30;99.90;;;;;;5004549;28;20088;-74
2021/12/06 03:26:14;;;;;;;48.88;25.20;;;2.30;99.90;;;;;;5030188;28;20107;-73
2021/12/06 03:28:43;;;;;;;47.55;25.15;;;2.30;99.90;;;;;;5031208;28;20046;-72
2021/12/06 03:31:11;;;;;;;53.92;26.33;;;2.30;99.90;;;;;;5029809;28;20563;-77
2021/12/06 03:33:39;;;;;;;50.75;25.58;;;2.30;99.90;;;;;;5029639;28;20585;-69
2021/12/06 03:36:07;;;;;;;50.25;25.42;;;2.30;99.90;;;;;;5030125;28;20053;-72
2021/12/06 03:38:35;;;;;;;52.22;27.30;;;2.30;99.90;;;;;;5029118;28;20536;-74
2021/12/06 03:41:19;;;;;;;53.40;26.20;;;2.30;99.90;;;;;;5001231;28;20057;-74
2021/12/06 03:43:45;;;;;;;55.40;26.98;;;2.30;99.90;;;;;;5029320;28;20045;-75
2021/12/06 03:46:13;;;;;;;56.42;26.67;;;2.30;99.90;;;;;;5029046;28;20053;-72
2021/12/06 03:48:39;;;;;;;59.20;27.00;;;2.30;99.90;;;;;;5028999;28;20045;-73
2021/12/06 03:51:09;;;;;;;52.35;25.17;;;2.30;99.90;;;;;;5031304;28;20046;-80
2021/12/06 03:53:35;;;;;;;54.20;26.10;;;2.30;99.90;;;;;;5034707;28;20124;-72
2021/12/06 03:56:02;;;;;;;53.85;28.20;;;2.40;99.90;;;;;;4996953;28;20153;-74
2021/12/06 03:58:30;;;;;;;52.40;25.80;;;2.30;99.90;;;;;;5012233;28;20451;-75
2021/12/06 04:00:56;;;;;;;52.95;26.65;;;2.30;99.90;;;;;;4992247;28;20050;-75
2021/12/06 04:03:25;;;;;;;54.40;26.30;;;2.30;99.90;;;;;;4975934;28;20109;-71
2021/12/06 04:05:52;;;;;;;55.30;28.45;;;2.40;99.90;;;;;;4960282;28;20062;-74
2021/12/06 04:08:19;;;;;;;55.28;27.30;;;2.40;99.90;;;;;;4976618;28;20089;-71
2021/12/06 04:10:51;;;;;;;61.13;29.25;;;2.30;99.90;;;;;;4976304;28;20476;-74
2021/12/06 04:13:38;;;;;;;55.50;27.65;;;2.40;99.90;;;;;;4995069;28;20093;-71
2021/12/06 04:16:15;;;;;;;55.67;26.90;;;2.40;99.90;;;;;;4965319;28;20057;-72
2021/12/06 04:18:46;;;;;;;56.88;27.63;;;2.30;99.90;;;;;;5013337;28;20104;-73
2021/12/06 04:21:12;;;;;;;49.97;25.50;;;2.30;99.90;;;;;;4995270;28;20046;-74
2021/12/06 04:23:44;;;;;;;53.55;25.83;;;2.40;99.90;;;;;;4995314;28;20053;-74
2021/12/06 04:26:29;;;;;;;55.08;25.60;;;2.30;99.90;;;;;;4998047;28;20219;-74
2021/12/06 04:29:00;;;;;;;59.72;27.23;;;2.30;99.90;;;;;;4979039;28;20066;-73
2021/12/06 04:31:36;;;;;;;55.25;25.58;;;2.30;99.90;;;;;;4994914;28;20160;-74
2021/12/06 04:34:03;;;;;;;59.50;26.35;;;2.30;99.90;;;;;;4995256;28;20053;-72
2021/12/06 04:36:46;;;;;;;54.92;26.45;;;2.30;99.90;;;;;;4976541;28;20515;-71
2021/12/06 04:39:17;;;;;;;55.85;26.13;;;2.30;99.90;;;;;;4974647;28;20101;-72
2021/12/06 04:41:44;;;;;;;63.08;28.67;;;2.30;99.90;;;;;;4941896;28;20088;-73
2021/12/06 04:44:10;;;;;;;59.00;28.27;;;2.40;99.90;;;;;;4974199;28;20443;-73
2021/12/06 04:46:37;;;;;;;62.50;27.75;;;2.30;99.90;;;;;;4942268;28;20089;-73
2021/12/06 04:49:08;;;;;;;59.05;28.48;;;2.30;99.90;;;;;;4975009;28;20509;-73
2021/12/06 04:51:39;;;;;;;54.45;26.48;;;2.30;99.90;;;;;;4974484;28;20449;-73
2021/12/06 04:54:05;;;;;;;59.10;26.08;;;2.30;99.90;;;;;;4958546;28;20055;-73
2021/12/06 04:56:44;;;;;;;62.60;27.65;;;2.30;99.90;;;;;;4990284;28;20086;-68
2021/12/06 05:02:00;;;;;;;57.03;25.65;;;2.40;99.90;;;;;;5055490;23;20432;-69
2021/12/06 05:04:30;;;;;;;56.83;26.00;;;2.30;99.90;;;;;;4978560;28;20045;-70
2021/12/06 05:07:15;;;;;;;62.22;27.38;;;2.40;99.90;;;;;;4978279;28;20560;-72
2021/12/06 06:22:08;;;;;;;87.17;33.57;;;2.10;99.90;;;;;;6220914;22;1868624;-70
2021/12/06 06:24:36;;;;;;;83.97;32.35;;;2.30;99.90;;;;;;6200581;23;20312;-72
2021/12/06 06:27:02;;;;;;;76.68;30.50;;;2.20;99.90;;;;;;6225218;23;20016;-71
2021/12/06 06:29:31;;;;;;;84.45;33.83;;;2.20;99.90;;;;;;6226087;23;20475;-75
2021/12/06 06:31:58;;;;;;;77.75;29.58;;;2.20;99.90;;;;;;6201107;23;20366;-71
2021/12/06 06:34:44;;;;;;;83.20;32.08;;;2.20;99.90;;;;;;6205297;23;20016;-71
2021/12/06 06:37:31;;;;;;;94.05;33.40;;;2.20;99.90;;;;;;6227119;23;20063;-72
2021/12/06 06:39:58;;;;;;;84.35;32.28;;;2.20;99.90;;;;;;6224488;23;20039;-73
2021/12/06 06:42:24;;;;;;;76.82;32.13;;;2.20;99.90;;;;;;6199679;23;20402;-72
2021/12/06 06:47:26;;;;;;;80.80;30.20;;;2.20;99.90;;;;;;6221757;22;20024;-72
2021/12/06 06:49:56;;;;;;;87.13;33.05;;;2.20;99.90;;;;;;6170734;23;20108;-70
2021/12/06 06:52:29;;;;;;;78.38;30.73;;;2.20;99.90;;;;;;6171519;23;20055;-74
2021/12/06 06:57:33;;;;;;;90.55;32.28;;;2.20;99.90;;;;;;6282630;22;20035;-80
2021/12/06 07:02:38;;;;;;;84.72;32.47;;;2.20;99.90;;;;;;6281404;22;20081;-71
2021/12/06 07:05:06;;;;;;;94.70;35.28;;;2.20;99.90;;;;;;6194596;22;20119;-72
2021/12/06 07:07:32;;;;;;;87.45;34.17;;;2.20;99.90;;;;;;6198251;23;20027;-71
2021/12/06 07:10:00;;;;;;;94.45;36.33;;;2.30;99.90;;;;;;6224126;23;20020;-71
2021/12/06 07:12:29;;;;;;;89.10;35.13;;;2.30;99.90;;;;;;6225124;23;20051;-70
2021/12/06 08:07:23;;;;;;;96.97;37.53;;;2.30;99.90;;;;;;6088742;22;4618128;-78
2021/12/06 10:16:31;;;;;;;78.40;31.95;;;3.20;99.90;;;;;;6268411;22;1373395;-76
2021/12/06 10:19:05;;;;;;;72.80;29.13;;;3.40;99.90;;;;;;6284319;22;20048;-80
2021/12/06 10:21:32;;;;;;;75.72;30.05;;;3.30;99.90;;;;;;6255699;22;20055;-74
2021/12/06 10:23:59;;;;;;;69.22;29.98;;;3.20;99.90;;;;;;6256387;22;20015;-77
2021/12/06 10:26:28;;;;;;;68.18;28.23;;;3.30;99.90;;;;;;6283052;22;20051;-79
2021/12/06 10:29:01;;;;;;;67.85;27.75;;;3.30;99.90;;;;;;6254157;22;20020;-82
2021/12/06 10:31:36;;;;;;;61.58;26.55;;;3.30;99.90;;;;;;6257988;22;20047;-79
2021/12/06 10:34:02;;;;;;;61.40;28.05;;;3.30;99.90;;;;;;6228132;22;20023;-72
2021/12/06 10:36:33;;;;;;;56.58;24.55;;;3.40;99.90;;;;;;6229923;22;20526;-77
2021/12/06 10:39:08;;;;;;;61.58;25.30;;;3.40;99.90;;;;;;6256904;22;20030;-77
2021/12/06 10:41:41;;;;;;;61.05;25.80;;;3.40;99.90;;;;;;6255682;22;20024;-76
2021/12/06 10:44:14;;;;;;;49.33;24.55;;;3.40;99.90;;;;;;6255243;22;20020;-76
2021/12/06 10:46:52;;;;;;;50.35;23.27;;;3.40;99.90;;;;;;6282975;22;20060;-78
2021/12/06 10:49:23;;;;;;;56.58;24.13;;;3.40;99.90;;;;;;6255054;22;20447;-72
2021/12/06 10:51:50;;;;;;;53.47;23.38;;;3.40;99.90;;;;;;6282797;22;20319;-75
2021/12/06 10:54:27;;;;;;;51.10;22.60;;;3.40;99.90;;;;;;6255359;22;20019;-75
2021/12/06 10:56:59;;;;;;;50.63;23.15;;;3.40;99.90;;;;;;6281308;22;20020;-78
2021/12/06 10:59:50;;;;;;;45.13;22.02;;;3.40;99.90;;;;;;6255741;22;20118;-79
2021/12/06 11:02:15;;;;;;;53.45;23.95;;;3.30;99.90;;;;;;6193560;23;20073;-80
2021/12/06 11:04:42;;;;;;;52.25;23.50;;;3.30;99.90;;;;;;6192591;23;20028;-76
2021/12/06 11:07:10;;;;;;;54.08;24.70;;;3.30;99.90;;;;;;6168802;23;20099;-77
2021/12/06 11:09:41;;;;;;;57.03;23.35;;;3.30;99.90;;;;;;6193489;23;20028;-78
2021/12/06 11:12:09;;;;;;;52.38;23.17;;;3.30;99.90;;;;;;6193687;23;20028;-78
2021/12/06 11:14:39;;;;;;;53.15;24.48;;;3.30;99.90;;;;;;6167244;23;20020;-78
2021/12/06 11:17:10;;;;;;;63.10;24.13;;;3.30;99.90;;;;;;6212692;23;20030;-76
2021/12/06 11:19:37;;;;;;;55.30;23.67;;;3.30;99.90;;;;;;6186175;23;20028;-77
2021/12/06 11:22:12;;;;;;;53.22;22.80;;;3.30;99.90;;;;;;6186770;23;20024;-77
2021/12/06 11:24:46;;;;;;;47.58;22.05;;;3.30;99.90;;;;;;6136564;23;20518;-75
2021/12/06 11:27:14;;;;;;;46.45;24.25;;;3.30;99.90;;;;;;6162591;23;20036;-71
2021/12/06 11:30:03;;;;;;;48.03;23.40;;;3.20;99.90;;;;;;6181834;23;20070;-76
2021/12/06 11:32:38;;;;;;;50.42;23.25;;;3.30;99.90;;;;;;6199116;22;20020;-76
2021/12/06 11:35:04;;;;;;;;;;;3.30;99.90;;;;;;6275854;22;20467;-76
2021/12/06 11:37:46;;;;;;;55.15;23.23;;;3.30;99.90;;;;;;6248278;22;19915;-72
2021/12/06 11:40:23;;;;;;;52.28;23.30;;;3.30;99.90;;;;;;6222770;22;20027;-76
2021/12/06 11:43:00;;;;;;;49.75;23.35;;;3.30;99.90;;;;;;6248474;22;20023;-76
2021/12/06 11:45:43;;;;;;;57.58;26.58;;;3.30;99.90;;;;;;6275668;22;20024;-75
2021/12/06 11:48:37;;;;;;;53.88;25.88;;;3.40;99.90;;;;;;6222995;22;20455;-75
2021/12/06 11:51:18;;;;;;;59.83;26.33;;;3.40;99.90;;;;;;6222996;22;20020;-74
2021/12/06 11:53:57;;;;;;;59.22;26.95;;;3.50;99.90;;;;;;6249406;22;20028;-78
2021/12/06 11:56:33;;;;;;;57.47;25.98;;;3.40;99.90;;;;;;6275253;22;20561;-73
2021/12/06 11:59:03;;;;;;;62.05;27.02;;;3.40;99.90;;;;;;6249226;22;20022;-73
2021/12/06 12:01:34;;;;;;;74.65;30.30;;;3.50;99.90;;;;;;6248093;22;20094;-76
2021/12/06 12:04:12;;;;;;;66.97;28.38;;;3.40;99.90;;;;;;6251894;22;20028;-76
2021/12/06 12:06:49;;;;;;;68.43;30.88;;;3.30;99.90;;;;;;6250378;22;20022;-77
2021/12/06 12:09:25;;;;;;;61.67;29.00;;;3.40;99.90;;;;;;6248504;22;20089;-81
2021/12/06 12:11:59;;;;;;;62.80;28.13;;;3.40;99.90;;;;;;6276401;22;20383;-81
2021/12/06 12:15:01;;;;;;;62.08;27.85;;;3.40;99.90;;;;;;6221386;22;20062;-71
2021/12/06 12:17:35;;;;;;;66.18;30.98;;;3.50;99.90;;;;;;6198187;22;20082;-76
2021/12/06 12:20:10;;;;;;;55.63;24.52;;;3.50;99.90;;;;;;6247919;22;20038;-78
2021/12/06 12:22:44;;;;;;;55.22;24.13;;;3.50;99.90;;;;;;6198746;22;20026;-76
2021/12/06 12:25:21;;;;;;;46.00;21.50;;;3.50;99.90;;;;;;6247679;22;20059;-77
2021/12/06 12:27:58;;;;;;;50.58;23.13;;;3.60;99.90;;;;;;6248123;22;20463;-76
2021/12/06 12:30:31;;;;;;;51.53;24.27;;;3.60;99.90;;;;;;6249364;22;20042;-78
2021/12/06 12:32:57;;;;;;;47.60;22.45;;;3.60;99.90;;;;;;6250168;22;20019;-78
2021/12/06 12:35:37;;;;;;;56.50;25.83;;;3.50;99.90;;;;;;6223075;22;20028;-76
2021/12/06 12:38:04;;;;;;;54.58;24.40;;;3.50;99.90;;;;;;6221991;22;20020;-79
2021/12/06 12:40:42;;;;;;;49.97;23.05;;;3.50;99.90;;;;;;6247735;22;20068;-76
2021/12/06 12:43:12;;;;;;;51.03;22.70;;;3.50;99.90;;;;;;6222204;22;20023;-74
2021/12/06 12:46:27;;;;;;;58.67;23.60;;;3.40;99.90;;;;;;6197485;22;20023;-76
2021/12/06 12:48:57;;;;;;;54.45;25.55;;;3.40;99.90;;;;;;6246619;22;20023;-79
2021/12/06 12:51:35;;;;;;;52.58;26.05;;;3.40;99.90;;;;;;6275295;22;20107;-75
2021/12/06 12:54:09;;;;;;;53.90;25.90;;;3.30;99.90;;;;;;6222265;22;20096;-74
2021/12/06 12:56:42;;;;;;;54.95;27.15;;;3.30;99.90;;;;;;6247643;22;20094;-79
2021/12/06 12:59:31;;;;;;;61.03;26.98;;;3.30;99.90;;;;;;6275382;22;20347;-78
2021/12/06 13:02:25;;;;;;;61.55;26.75;;;3.30;99.90;;;;;;6247490;22;20030;-74
2021/12/06 13:05:14;;;;;;;60.85;27.80;;;3.30;99.90;;;;;;6274847;22;20465;-79
2021/12/06 13:07:50;;;;;;;62.33;28.38;;;3.30;99.90;;;;;;6248726;22;20023;-79
2021/12/06 13:10:23;;;;;;;67.00;30.15;;;3.30;99.90;;;;;;6247882;22;20078;-78
2021/12/06 13:13:27;;;;;;;73.20;31.30;;;3.30;99.90;;;;;;6275444;22;20018;-77
2021/12/06 13:21:40;;;;;;;72.60;31.75;;;3.30;99.90;;;;;;6247080;22;20537;-80
2021/12/06 13:24:29;;;;;;;77.13;31.15;;;3.30;99.90;;;;;;6274694;22;20016;-79
2021/12/06 13:27:01;;;;;;;73.82;31.90;;;3.30;99.90;;;;;;6276212;22;20020;-79
2021/12/06 13:29:40;;;;;;;69.65;31.25;;;3.30;99.90;;;;;;6248418;22;20024;-79
2021/12/06 13:32:43;;;;;;;66.22;30.92;;;3.30;99.90;;;;;;6248822;22;20346;-79
2021/12/06 13:35:34;;;;;;;67.78;29.15;;;3.30;99.90;;;;;;6248656;22;20462;-79
2021/12/06 13:38:06;;;;;;;66.65;28.08;;;3.30;99.90;;;;;;6248009;22;20391;-78
2021/12/06 13:40:38;;;;;;;62.47;29.60;;;3.40;99.90;;;;;;6246855;22;20078;-77
2021/12/06 13:43:59;;;;;;;73.70;27.20;;;3.30;99.90;;;;;;6275598;22;20019;-79
2021/12/06 13:46:38;;;;;;;71.65;30.33;;;3.40;99.90;;;;;;6127622;23;20029;-78
2021/12/06 13:49:23;;;;;;;72.07;27.90;;;3.40;99.90;;;;;;6102710;23;20025;-79
2021/12/06 13:52:10;;;;;;;67.82;29.40;;;3.40;99.90;;;;;;6151485;23;20044;-78
2021/12/06 13:54:38;;;;;;;73.07;29.05;;;3.40;99.90;;;;;;6128296;23;20057;-78
2021/12/06 13:57:24;;;;;;;70.43;28.63;;;3.30;99.90;;;;;;6131847;23;20400;-79
2021/12/06 13:59:57;;;;;;;74.82;30.83;;;3.40;99.90;;;;;;6127138;23;20071;-79
2021/12/06 14:02:42;;;;;;;66.50;30.65;;;3.40;99.90;;;;;;6103930;23;20065;-79
2021/12/06 14:05:09;;;;;;;66.72;29.67;;;3.30;99.90;;;;;;6101563;23;20025;-78
2021/12/06 14:07:36;;;;;;;67.18;30.00;;;3.30;99.90;;;;;;6152271;23;20369;-77
2021/12/06 14:10:02;;;;;;;75.07;30.45;;;3.30;99.90;;;;;;6152276;23;20036;-77
2021/12/06 14:12:33;;;;;;;66.93;29.23;;;3.30;99.90;;;;;;6152260;23;20025;-78
2021/12/06 14:15:14;;;;;;;67.30;28.65;;;3.30;99.90;;;;;;6152033;23;20025;-77
2021/12/06 14:17:40;;;;;;;70.82;28.83;;;3.30;99.90;;;;;;6102795;23;20047;-78
2021/12/06 14:20:07;;;;;;;65.25;29.17;;;3.30;99.90;;;;;;6199336;22;20497;-77
2021/12/06 14:22:34;;;;;;;65.70;27.80;;;3.30;99.90;;;;;;6248682;22;20518;-77
2021/12/06 14:25:01;;;;;;;66.68;29.20;;;3.30;99.90;;;;;;6222287;22;20081;-78
2021/12/06 14:27:30;;;;;;;72.38;28.73;;;3.30;99.90;;;;;;6247975;22;20405;-76
2021/12/06 14:29:58;;;;;;;63.28;27.45;;;3.30;99.90;;;;;;6247833;22;20019;-75
2021/12/06 14:32:24;;;;;;;74.75;30.80;;;3.30;99.90;;;;;;6247141;22;20024;-76
2021/12/06 14:34:50;;;;;;;68.15;29.85;;;3.30;99.90;;;;;;6221372;22;20532;-74
2021/12/06 14:37:19;;;;;;;71.32;29.65;;;3.30;99.90;;;;;;6223204;22;20109;-75
2021/12/06 14:39:56;;;;;;;68.55;29.85;;;3.30;99.90;;;;;;6132433;23;20400;-79
2021/12/06 14:42:23;;;;;;;68.18;30.60;;;3.30;99.90;;;;;;6156223;23;20060;-78
2021/12/06 14:44:56;;;;;;;68.85;31.67;;;3.30;99.90;;;;;;6129787;23;20492;-76
2021/12/06 14:47:23;;;;;;;67.57;30.02;;;3.30;99.90;;;;;;6153758;23;20025;-78
2021/12/06 14:49:52;;;;;;;59.67;29.67;;;3.30;99.90;;;;;;6154727;23;20435;-75
2021/12/06 14:52:33;;;;;;;68.45;30.85;;;3.20;99.90;;;;;;6156373;23;20032;-77
2021/12/06 14:58:05;;;;;;;65.97;30.20;;;3.20;99.90;;;;;;6137967;23;20024;-78
2021/12/06 15:00:40;;;;;;;77.03;29.90;;;3.20;99.90;;;;;;6157183;23;20095;-75
2021/12/06 15:03:09;;;;;;;69.72;31.17;;;3.30;99.90;;;;;;6154180;23;20025;-77
2021/12/06 15:05:47;;;;;;;66.32;29.58;;;3.30;99.90;;;;;;6157107;23;20021;-78
2021/12/06 15:08:22;;;;;;;75.28;31.60;;;3.20;99.90;;;;;;6107481;23;20064;-74
2021/12/06 15:11:07;;;;;;;75.07;31.83;;;3.20;99.90;;;;;;6204028;22;20020;-75
2021/12/06 15:13:52;;;;;;;75.15;32.17;;;3.20;99.90;;;;;;6150968;23;20021;-79
2021/12/06 15:16:20;;;;;;;78.95;34.25;;;3.20;99.90;;;;;;6103230;23;20076;-79
2021/12/06 15:18:45;;;;;;;74.47;32.22;;;3.30;99.90;;;;;;6152205;23;20168;-77
2021/12/06 15:21:18;;;;;;;68.60;31.25;;;3.30;99.90;;;;;;6152633;23;20021;-78
2021/12/06 15:23:49;;;;;;;61.30;27.65;;;3.30;99.90;;;;;;6129641;23;20025;-79
2021/12/06 15:26:22;;;;;;;73.90;30.63;;;3.30;99.90;;;;;;6127572;23;20088;-79
2021/12/06 15:28:50;;;;;;;68.93;29.80;;;3.30;99.90;;;;;;6097479;23;20022;-81
2021/12/06 15:31:22;;;;;;;78.07;30.42;;;3.30;99.90;;;;;;6127909;23;20037;-79
2021/12/06 15:33:49;;;;;;;79.93;31.80;;;3.30;99.90;;;;;;6152249;23;20018;-80
2021/12/06 15:36:27;;;;;;;86.45;35.33;;;3.30;99.90;;;;;;6128911;23;20021;-77
2021/12/06 15:39:00;;;;;;;72.47;31.17;;;3.30;99.90;;;;;;6126871;23;20026;-80
2021/12/06 15:41:33;;;;;;;80.57;32.92;;;3.30;99.90;;;;;;6152040;23;20021;-81
2021/12/06 15:44:26;;;;;;;79.07;33.13;;;3.40;99.90;;;;;;6127437;23;20017;-82
2021/12/06 15:47:20;;;;;;;71.18;30.58;;;3.40;99.90;;;;;;6124159;23;20053;-79
2021/12/06 15:49:52;;;;;;;86.88;35.42;;;3.30;99.90;;;;;;6151216;23;20077;-82
2021/12/06 15:52:23;;;;;;;82.00;35.17;;;3.40;99.90;;;;;;6217366;22;20023;-81
2021/12/06 15:54:55;;;;;;;91.40;35.15;;;3.40;99.90;;;;;;6222744;22;20057;-80
2021/12/06 15:57:24;;;;;;;95.63;38.10;;;3.40;99.90;;;;;;6248235;22;20030;-80
2021/12/06 15:59:51;;;;;;;88.10;37.22;;;3.40;99.90;;;;;;6249111;22;20535;-78
2021/12/06 16:02:26;;;;;;;88.90;38.03;;;3.40;99.90;;;;;;6277485;22;20022;-75
2021/12/06 16:05:03;;;;;;;93.20;38.90;;;3.40;99.90;;;;;;6250379;22;20020;-75
2021/12/06 16:07:32;;;;;;;87.97;37.10;;;3.40;99.90;;;;;;6276147;22;20019;-73
2021/12/06 16:09:59;;;;;;;93.30;38.60;;;3.50;99.90;;;;;;6270657;22;20019;-77
2021/12/06 16:12:28;;;;;;;90.90;38.42;;;3.40;99.90;;;;;;6248117;22;20052;-85
2021/12/06 16:15:01;;;;;;;95.78;37.92;;;3.50;99.90;;;;;;6248292;22;20051;-85
2021/12/06 16:17:38;;;;;;;97.07;38.20;;;3.50;99.90;;;;;;6246960;22;20051;-76
2021/12/06 16:20:05;;;;;;;91.55;38.20;;;3.50;99.90;;;;;;6223478;22;20059;-74
2021/12/06 16:22:31;;;;;;;91.65;38.10;;;3.50;99.90;;;;;;6197480;22;20023;-73
2021/12/06 16:24:57;;;;;;;88.65;34.05;;;3.50;99.90;;;;;;6246670;22;20027;-77
2021/12/06 16:27:23;;;;;;;91.88;37.75;;;3.50;99.90;;;;;;6248041;22;20146;-90
2021/12/06 16:29:53;;;;;;;94.28;39.13;;;3.50;99.90;;;;;;6198315;22;20024;-80
2021/12/06 16:32:20;;;;;;;93.75;37.42;;;3.50;99.90;;;;;;6247311;22;20324;-84
2021/12/06 16:35:02;;;;;;;93.07;40.60;;;3.60;99.90;;;;;;6247384;22;20031;-77
2021/12/06 16:37:30;;;;;;;91.88;39.63;;;3.60;99.90;;;;;;6225576;22;20019;-75
2021/12/06 16:40:34;;;;;;;99.43;40.05;;;3.60;99.90;;;;;;6156497;23;20092;-76
2021/12/06 16:43:04;;;;;;;93.90;40.22;;;3.60;99.90;;;;;;6159694;23;20071;-80
2021/12/06 16:45:35;;;;;;;96.63;40.58;;;3.60;99.90;;;;;;6136487;23;20079;-78
2021/12/06 16:48:12;;;;;;;95.80;41.85;;;3.60;99.90;;;;;;6179523;23;20025;-85
2021/12/06 16:50:48;;;;;;;89.22;41.30;;;3.60;99.90;;;;;;6181013;23;20083;-74
2021/12/06 16:53:18;;;;;;;84.88;39.22;;;3.60;99.90;;;;;;6131656;23;20152;-80
2021/12/06 16:55:55;;;;;;;90.45;38.13;;;3.60;99.90;;;;;;6131556;23;20152;-71
2021/12/06 16:58:20;;;;;;;89.63;36.15;;;3.60;99.90;;;;;;6087365;23;20032;-80
2021/12/06 17:00:56;;;;;;;92.78;38.83;;;3.60;99.90;;;;;;6157180;23;20491;-76
2021/12/06 17:03:27;;;;;;;87.15;37.83;;;3.70;99.90;;;;;;6155693;23;20033;-72
2021/12/06 17:06:02;;;;;;;83.85;38.15;;;3.60;99.90;;;;;;6155763;23;20028;-74
2021/12/06 17:08:32;;;;;;;83.80;36.33;;;3.60;99.90;;;;;;6107460;23;20028;-78
2021/12/06 17:11:08;;;;;;;85.75;35.35;;;3.60;99.90;;;;;;6131300;23;20060;-81
2021/12/06 17:13:41;;;;;;;76.78;34.20;;;3.60;99.90;;;;;;6130663;23;20061;-80
2021/12/06 17:16:21;;;;;;;78.85;34.05;;;3.60;99.90;;;;;;6134598;23;20089;-83
2021/12/06 17:18:48;;;;;;;68.60;33.53;;;3.60;99.90;;;;;;6165284;23;20056;-82
2021/12/06 17:21:20;;;;;;;63.03;30.35;;;3.60;99.90;;;;;;6183752;23;20044;-83
2021/12/06 17:23:52;;;;;;;65.45;30.17;;;3.60;99.90;;;;;;6156157;23;20036;-86
2021/12/06 17:26:43;;;;;;;68.07;30.60;;;3.60;99.90;;;;;;6126169;23;20381;-83
2021/12/06 17:29:16;;;;;;;62.80;27.77;;;3.60;99.90;;;;;;6151881;23;20097;-80
2021/12/06 17:31:46;;;;;;;65.43;26.75;;;3.60;99.90;;;;;;6213842;23;20106;-84
2021/12/06 17:34:25;;;;;;;58.05;26.42;;;3.50;99.90;;;;;;6191502;23;20024;-83
2021/12/06 17:37:04;;;;;;;61.92;28.50;;;3.50;99.90;;;;;;6241682;23;20103;-80
2021/12/06 17:39:32;;;;;;;66.97;28.48;;;3.50;99.90;;;;;;6190788;23;20560;-77
2021/12/06 17:42:03;;;;;;;63.63;29.90;;;3.50;99.90;;;;;;6215172;23;20039;-78
2021/12/06 17:44:54;;;;;;;54.53;26.02;;;3.50;99.90;;;;;;6220342;23;20105;-81
2021/12/06 17:47:21;;;;;;;48.10;22.25;;;3.40;99.90;;;;;;6240662;23;20020;-80
2021/12/06 17:49:47;;;;;;;45.65;22.30;;;3.30;99.90;;;;;;6240868;23;20036;-81
2021/12/06 17:52:13;;;;;;;38.75;20.48;;;3.30;99.90;;;;;;6245177;23;20044;-74
2021/12/06 17:54:38;;;;;;;39.35;22.38;;;3.20;99.90;;;;;;6249442;23;20154;-76
2021/12/06 17:57:07;;;;;;;39.40;20.65;;;3.20;99.90;;;;;;6168581;23;20052;-80